createdAt,value
2023-05-12T00:00:18.733Z,98.80
2023-05-12T00:02:46.707Z,99.00
2023-05-12T00:05:13.747Z,99.20
2023-05-12T00:07:40.762Z,99.20
2023-05-12T00:10:09.217Z,99.20
2023-05-12T00:12:36.157Z,99.30
2023-05-12T00:15:03.860Z,99.20
2023-05-12T00:17:30.706Z,99.30
2023-05-12T00:19:57.681Z,99.40
2023-05-12T00:22:24.678Z,99.30
2023-05-12T00:24:51.638Z,99.40
2023-05-12T00:27:18.549Z,99.60
2023-05-12T00:29:45.405Z,99.50
2023-05-12T00:32:12.285Z,99.60
2023-05-12T00:34:39.635Z,99.80
2023-05-12T00:37:06.533Z,99.90
2023-05-12T00:39:33.496Z,99.90
2023-05-12T00:42:00.471Z,99.90
2023-05-12T00:44:27.229Z,99.90
2023-05-12T00:46:55.354Z,99.90
2023-05-12T00:49:22.351Z,99.90
2023-05-12T00:51:49.954Z,99.80
2023-05-12T00:54:17.383Z,99.90
2023-05-12T00:56:44.288Z,99.90
2023-05-12T00:59:11.643Z,99.60
2023-05-12T01:01:42.025Z,99.90
2023-05-12T01:04:09.448Z,99.90
2023-05-12T01:06:52.030Z,99.90
2023-05-12T01:09:19.900Z,99.90
2023-05-12T01:11:47.723Z,99.90
2023-05-12T01:14:15.107Z,99.90
2023-05-12T01:16:49.825Z,99.90
2023-05-12T01:19:39.849Z,99.90
2023-05-12T01:22:09.196Z,99.90
2023-05-12T01:24:59.158Z,99.90
2023-05-12T01:27:29.351Z,99.90
2023-05-12T01:30:00.684Z,99.90
2023-05-12T01:32:30.664Z,99.90
2023-05-12T01:34:58.363Z,99.90
2023-05-12T01:37:27.017Z,99.90
2023-05-12T01:39:55.061Z,99.90
2023-05-12T01:42:21.960Z,99.90
2023-05-12T01:44:49.823Z,99.90
2023-05-12T01:47:20.956Z,99.90
2023-05-12T01:49:57.492Z,99.90
2023-05-12T01:52:25.180Z,99.90
2023-05-12T01:54:52.498Z,99.90
2023-05-12T01:57:19.460Z,99.90
2023-05-12T01:59:47.208Z,99.90
2023-05-12T02:02:14.177Z,99.90
2023-05-12T02:04:41.407Z,99.90
2023-05-12T02:07:09.168Z,99.90
2023-05-12T02:09:36.331Z,99.90
2023-05-12T02:12:04.688Z,99.90
2023-05-12T02:14:31.494Z,99.90
2023-05-12T02:16:58.339Z,99.90
2023-05-12T02:19:25.929Z,99.90
2023-05-12T02:21:53.013Z,99.90
2023-05-12T02:24:21.615Z,99.90
2023-05-12T02:26:49.059Z,99.90
2023-05-12T02:29:16.030Z,99.90
2023-05-12T02:31:43.018Z,99.90
2023-05-12T02:34:16.241Z,99.90
2023-05-12T02:36:43.343Z,99.90
2023-05-12T02:39:11.693Z,99.90
2023-05-12T02:41:38.727Z,99.90
2023-05-12T02:44:05.805Z,99.90
2023-05-12T02:46:33.162Z,99.90
2023-05-12T02:49:00.064Z,99.90
2023-05-12T02:51:27.006Z,99.90
2023-05-12T02:53:53.981Z,99.90
2023-05-12T02:56:24.135Z,99.90
2023-05-12T02:58:53.515Z,99.90
2023-05-12T03:01:20.474Z,99.90
2023-05-12T03:03:47.718Z,99.90
2023-05-12T03:06:15.159Z,99.90
2023-05-12T03:08:42.239Z,99.90
2023-05-12T03:11:09.573Z,99.90
2023-05-12T03:13:36.604Z,99.90
2023-05-12T03:16:03.682Z,99.90
2023-05-12T03:18:30.810Z,99.90
2023-05-12T03:20:57.828Z,99.90
2023-05-12T03:23:25.228Z,99.90
2023-05-12T03:25:52.140Z,99.90
2023-05-12T03:28:19.041Z,99.90
2023-05-12T03:30:46.081Z,99.90
2023-05-12T03:33:13.193Z,99.90
2023-05-12T03:35:40.263Z,99.90
2023-05-12T03:38:07.199Z,99.90
2023-05-12T03:40:34.207Z,99.90
2023-05-12T03:43:01.071Z,99.90
2023-05-12T03:45:28.126Z,99.90
2023-05-12T03:47:55.250Z,99.90
2023-05-12T03:50:22.589Z,99.90
2023-05-12T03:52:49.549Z,99.90
2023-05-12T03:55:16.528Z,99.90
2023-05-12T03:57:43.346Z,99.90
2023-05-12T04:00:11.588Z,99.90
2023-05-12T04:02:44.365Z,99.90
2023-05-12T04:05:11.516Z,99.90
2023-05-12T04:07:38.450Z,99.90
2023-05-12T04:10:05.889Z,99.90
2023-05-12T04:12:32.986Z,99.90
2023-05-12T04:15:00.437Z,99.90
2023-05-12T04:17:30.813Z,99.90
2023-05-12T04:19:57.871Z,99.80
2023-05-12T04:22:25.888Z,99.20
2023-05-12T04:24:53.246Z,99.20
2023-05-12T04:27:20.305Z,98.90
2023-05-12T04:29:47.209Z,98.50
2023-05-12T04:32:14.133Z,97.70
2023-05-12T04:34:41.559Z,96.90
2023-05-12T04:37:08.824Z,96.60
2023-05-12T04:39:35.748Z,96.50
2023-05-12T04:42:02.787Z,96.40
2023-05-12T04:44:32.395Z,96.50
2023-05-12T04:47:00.238Z,96.50
2023-05-12T04:49:27.219Z,96.30
2023-05-12T04:51:54.178Z,96.00
2023-05-12T04:54:21.138Z,95.80
2023-05-12T04:56:48.102Z,95.30
2023-05-12T04:59:18.249Z,94.90
2023-05-12T05:01:46.929Z,94.60
2023-05-12T05:04:14.600Z,94.30
2023-05-12T05:06:41.664Z,94.10
2023-05-12T05:09:09.008Z,93.80
2023-05-12T05:11:36.318Z,93.10
2023-05-12T05:14:03.271Z,92.40
2023-05-12T05:16:30.836Z,92.20
2023-05-12T05:18:58.579Z,91.80
2023-05-12T05:21:26.270Z,91.60
2023-05-12T05:23:53.434Z,91.40
2023-05-12T05:26:21.680Z,91.20
2023-05-12T05:28:48.506Z,90.90
2023-05-12T05:31:17.132Z,91.10
2023-05-12T05:33:44.723Z,91.10
2023-05-12T05:36:11.751Z,91.10
2023-05-12T05:38:38.750Z,91.00
2023-05-12T05:41:06.794Z,91.50
2023-05-12T05:43:34.029Z,91.60
2023-05-12T05:46:01.562Z,91.40
2023-05-12T05:48:28.561Z,91.40
2023-05-12T05:50:55.962Z,91.30
2023-05-12T05:53:24.516Z,90.90
2023-05-12T05:55:52.551Z,90.90
2023-05-12T05:58:19.433Z,90.40
2023-05-12T06:00:47.374Z,90.10
2023-05-12T06:03:14.521Z,90.10
2023-05-12T06:05:43.295Z,89.50
2023-05-12T06:08:13.807Z,89.50
2023-05-12T06:10:43.692Z,89.50
2023-05-12T06:13:10.778Z,89.20
2023-05-12T06:15:38.263Z,87.50
2023-05-12T06:18:05.416Z,87.20
2023-05-12T06:20:33.037Z,86.40
2023-05-12T06:22:59.886Z,86.90
2023-05-12T06:25:26.989Z,87.10
2023-05-12T06:27:54.012Z,87.30
2023-05-12T06:30:21.152Z,86.00
2023-05-12T06:32:48.119Z,85.40
2023-05-12T06:35:15.078Z,84.00
2023-05-12T06:37:44.828Z,84.10
2023-05-12T06:40:14.687Z,83.70
2023-05-12T06:42:41.627Z,82.20
2023-05-12T06:45:10.960Z,79.30
2023-05-12T06:47:37.941Z,79.20
2023-05-12T06:50:05.633Z,80.00
2023-05-12T06:52:32.639Z,80.40
2023-05-12T06:54:59.474Z,78.80
2023-05-12T06:57:26.472Z,77.30
2023-05-12T06:59:53.362Z,77.30
2023-05-12T07:02:20.381Z,77.10
2023-05-12T07:04:47.277Z,76.80
2023-05-12T07:07:14.209Z,77.00
2023-05-12T07:09:42.383Z,77.20
2023-05-12T07:12:09.403Z,77.70
2023-05-12T07:14:36.328Z,77.80
2023-05-12T07:17:04.542Z,77.00
2023-05-12T07:19:31.314Z,75.70
2023-05-12T07:21:58.784Z,76.00
2023-05-12T07:24:25.820Z,75.80
2023-05-12T07:26:52.670Z,75.30
2023-05-12T07:29:19.568Z,74.70
2023-05-12T07:31:46.735Z,75.20
2023-05-12T07:34:13.674Z,74.10
2023-05-12T07:36:40.552Z,72.40
2023-05-12T07:39:07.413Z,73.10
2023-05-12T07:41:34.651Z,71.00
2023-05-12T07:44:02.510Z,71.80
2023-05-12T07:46:29.793Z,69.70
2023-05-12T07:48:57.343Z,69.30
2023-05-12T07:51:24.195Z,69.80
2023-05-12T07:53:51.237Z,70.10
2023-05-12T07:56:18.215Z,69.00
2023-05-12T07:58:46.756Z,68.60
2023-05-12T08:01:15.364Z,69.20
2023-05-12T08:03:42.447Z,68.70
2023-05-12T08:06:09.550Z,67.10
2023-05-12T08:08:36.675Z,67.90
2023-05-12T08:11:03.663Z,65.10
2023-05-12T08:13:30.630Z,64.20
2023-05-12T08:15:57.495Z,63.50
2023-05-12T08:18:24.545Z,63.10
2023-05-12T08:20:51.665Z,63.20
2023-05-12T08:23:18.917Z,63.70
2023-05-12T08:25:45.910Z,63.90
2023-05-12T08:28:14.246Z,65.30
2023-05-12T08:30:41.938Z,65.40
2023-05-12T08:33:08.853Z,65.90
2023-05-12T08:35:36.048Z,66.40
2023-05-12T08:38:06.103Z,65.30
2023-05-12T08:40:39.795Z,63.10
2023-05-12T08:43:23.105Z,64.50
2023-05-12T08:45:50.516Z,64.20
2023-05-12T08:48:20.110Z,63.00
2023-05-12T08:50:49.990Z,62.90
2023-05-12T08:53:20.680Z,64.00
2023-05-12T08:56:01.166Z,63.30
2023-05-12T08:58:41.756Z,62.70
2023-05-12T09:01:11.933Z,64.30
2023-05-12T09:03:39.380Z,62.80
2023-05-12T09:06:07.057Z,63.00
2023-05-12T09:08:35.235Z,63.00
2023-05-12T09:11:02.787Z,64.10
2023-05-12T09:14:00.973Z,64.80
2023-05-12T09:16:33.254Z,64.40
2023-05-12T09:19:01.628Z,65.50
2023-05-12T09:21:29.038Z,66.10
2023-05-12T09:24:06.208Z,64.00
2023-05-12T09:26:55.850Z,63.30
2023-05-12T09:29:31.942Z,62.50
2023-05-12T09:32:03.269Z,61.50
2023-05-12T09:34:37.126Z,61.90
2023-05-12T09:37:06.829Z,60.90
2023-05-12T09:39:34.919Z,61.20
2023-05-12T09:42:01.805Z,61.30
2023-05-12T09:44:31.314Z,60.70
2023-05-12T09:47:07.183Z,62.50
2023-05-12T09:49:34.053Z,63.10
2023-05-12T09:52:01.021Z,60.50
2023-05-12T09:54:32.386Z,59.70
2023-05-12T09:57:01.480Z,58.10
2023-05-12T09:59:32.774Z,57.10
2023-05-12T10:02:01.602Z,56.50
2023-05-12T10:04:39.516Z,56.80
2023-05-12T10:07:08.843Z,57.50
2023-05-12T10:09:39.460Z,57.00
2023-05-12T10:12:06.545Z,56.90
2023-05-12T10:14:35.545Z,55.40
2023-05-12T10:17:03.182Z,56.90
2023-05-12T10:19:30.938Z,56.80
2023-05-12T10:21:58.523Z,55.50
2023-05-12T10:24:27.420Z,57.10
2023-05-12T10:26:56.650Z,57.60
2023-05-12T10:29:30.181Z,56.90
2023-05-12T10:31:58.001Z,56.80
2023-05-12T10:34:32.684Z,56.70
2023-05-12T10:36:59.710Z,55.80
2023-05-12T10:39:30.231Z,56.90
2023-05-12T10:42:10.135Z,58.10
2023-05-12T10:44:48.238Z,56.20
2023-05-12T10:47:15.352Z,56.90
2023-05-12T10:49:43.348Z,55.10
2023-05-12T10:52:13.589Z,54.90
2023-05-12T10:54:44.585Z,55.00
2023-05-12T10:57:21.656Z,54.80
2023-05-12T10:59:51.589Z,55.30
2023-05-12T11:02:23.591Z,55.00
2023-05-12T11:04:59.945Z,55.50
2023-05-12T11:07:30.579Z,56.20
2023-05-12T11:10:01.524Z,56.00
2023-05-12T11:12:33.520Z,55.50
2023-05-12T11:15:01.795Z,55.20
2023-05-12T11:17:29.023Z,54.30
2023-05-12T11:19:56.486Z,54.00
2023-05-12T11:22:24.098Z,54.10
2023-05-12T11:24:52.642Z,56.00
2023-05-12T11:27:23.150Z,55.80
2023-05-12T11:29:59.440Z,54.90
2023-05-12T11:32:27.175Z,54.80
2023-05-12T11:34:54.134Z,56.20
2023-05-12T11:37:22.093Z,55.50
2023-05-12T11:39:49.219Z,55.10
2023-05-12T11:42:20.043Z,55.00
2023-05-12T11:44:50.398Z,56.00
2023-05-12T11:47:19.466Z,54.50
2023-05-12T11:49:48.183Z,54.70
2023-05-12T11:52:17.752Z,54.20
2023-05-12T11:54:58.645Z,53.10
2023-05-12T11:57:27.619Z,53.50
2023-05-12T12:00:07.982Z,53.80
2023-05-12T12:02:37.482Z,54.20
2023-05-12T12:05:08.490Z,53.30
2023-05-12T12:07:36.736Z,53.60
2023-05-12T12:10:17.556Z,53.50
2023-05-12T12:12:45.814Z,53.70
2023-05-12T12:15:13.193Z,52.00
2023-05-12T12:17:40.707Z,53.00
2023-05-12T12:20:09.311Z,51.50
2023-05-12T12:22:36.635Z,52.60
2023-05-12T12:25:04.231Z,52.80
2023-05-12T12:27:31.354Z,50.90
2023-05-12T12:29:58.405Z,51.20
2023-05-12T12:32:25.564Z,52.10
2023-05-12T12:34:53.410Z,52.10
2023-05-12T12:37:20.537Z,51.90
2023-05-12T12:39:48.021Z,51.90
2023-05-12T12:42:15.610Z,52.00
2023-05-12T12:44:43.212Z,51.30
2023-05-12T12:47:10.423Z,51.60
2023-05-12T12:49:37.666Z,51.80
2023-05-12T12:52:05.641Z,51.70
2023-05-12T12:54:32.827Z,51.80
2023-05-12T12:56:59.681Z,51.80
2023-05-12T12:59:27.153Z,51.40
2023-05-12T13:01:54.094Z,50.70
2023-05-12T13:04:23.155Z,51.20
2023-05-12T13:06:50.296Z,51.30
2023-05-12T13:09:19.705Z,50.80
2023-05-12T13:11:51.238Z,51.70
2023-05-12T13:14:18.173Z,51.10
2023-05-12T13:16:45.907Z,49.90
2023-05-12T13:19:12.955Z,50.00
2023-05-12T13:21:40.036Z,49.70
2023-05-12T13:24:07.085Z,49.40
2023-05-12T13:26:34.141Z,49.70
2023-05-12T13:29:01.097Z,50.30
2023-05-12T13:31:28.189Z,50.40
2023-05-12T13:33:55.097Z,50.30
2023-05-12T13:36:21.984Z,49.40
2023-05-12T13:38:48.939Z,49.60
2023-05-12T13:41:15.871Z,49.50
2023-05-12T13:43:43.713Z,49.10
2023-05-12T13:46:10.649Z,49.60
2023-05-12T13:48:37.561Z,49.90
2023-05-12T13:51:04.717Z,50.50
2023-05-12T13:53:32.257Z,51.70
2023-05-12T13:56:18.326Z,50.70
2023-05-12T13:58:45.318Z,50.90
2023-05-12T14:01:12.724Z,49.80
2023-05-12T14:03:42.112Z,50.10
2023-05-12T14:06:09.407Z,49.90
2023-05-12T14:08:36.455Z,49.40
2023-05-12T14:11:03.563Z,49.80
2023-05-12T14:13:31.115Z,49.50
2023-05-12T14:15:58.543Z,50.40
2023-05-12T14:18:25.762Z,50.90
2023-05-12T14:20:52.955Z,50.90
2023-05-12T14:23:19.890Z,51.20
2023-05-12T14:25:46.856Z,50.90
2023-05-12T14:28:13.834Z,51.30
2023-05-12T14:30:41.188Z,51.50
2023-05-12T14:33:08.276Z,51.40
2023-05-12T14:35:35.280Z,51.50
2023-05-12T14:38:02.288Z,51.60
2023-05-12T14:40:29.206Z,52.00
2023-05-12T14:42:56.346Z,51.90
2023-05-12T14:45:25.757Z,51.90
2023-05-12T14:47:52.811Z,51.70
2023-05-12T14:50:20.137Z,51.50
2023-05-12T14:52:47.614Z,51.90
2023-05-12T14:55:17.339Z,52.20
2023-05-12T14:57:45.217Z,52.40
2023-05-12T15:00:13.074Z,52.40
2023-05-12T15:02:41.303Z,52.40
2023-05-12T15:05:09.577Z,52.50
2023-05-12T15:07:37.320Z,52.90
2023-05-12T15:10:05.076Z,53.10
2023-05-12T15:12:33.505Z,53.00
2023-05-12T15:15:05.329Z,53.40
2023-05-12T15:17:32.592Z,53.70
2023-05-12T15:19:59.561Z,53.70
2023-05-12T15:22:26.727Z,54.10
2023-05-12T15:24:53.674Z,54.30
2023-05-12T15:27:20.597Z,54.60
2023-05-12T15:29:47.534Z,54.60
2023-05-12T15:32:15.909Z,55.10
2023-05-12T15:34:42.714Z,55.50
2023-05-12T15:37:10.071Z,55.90
2023-05-12T15:39:37.064Z,55.90
2023-05-12T15:42:05.567Z,55.70
2023-05-12T15:44:34.455Z,55.70
2023-05-12T15:47:01.513Z,55.60
2023-05-12T15:49:28.376Z,55.60
2023-05-12T15:51:55.181Z,55.80
2023-05-12T15:54:22.129Z,55.90
2023-05-12T15:56:52.119Z,56.40
2023-05-12T15:59:19.933Z,56.80
2023-05-12T16:01:47.054Z,57.50
2023-05-12T16:04:14.421Z,58.20
2023-05-12T16:06:41.537Z,58.60
2023-05-12T16:09:09.386Z,58.90
2023-05-12T16:11:36.228Z,59.30
2023-05-12T16:14:03.449Z,59.40
2023-05-12T16:16:30.865Z,59.50
2023-05-12T16:18:57.948Z,60.20
2023-05-12T16:21:25.065Z,59.70
2023-05-12T16:23:52.007Z,59.70
2023-05-12T16:26:19.379Z,59.90
2023-05-12T16:28:46.848Z,59.90
2023-05-12T16:31:18.132Z,60.20
2023-05-12T16:33:45.535Z,60.00
2023-05-12T16:36:13.032Z,60.20
2023-05-12T16:38:39.934Z,60.30
2023-05-12T16:41:06.780Z,60.50
2023-05-12T16:43:33.772Z,60.50
2023-05-12T16:46:02.164Z,60.50
2023-05-12T16:48:34.146Z,60.40
2023-05-12T16:51:02.547Z,60.00
2023-05-12T16:53:30.000Z,60.70
2023-05-12T16:55:57.962Z,60.30
2023-05-12T16:58:25.751Z,60.30
2023-05-12T17:00:52.979Z,60.20
2023-05-12T17:03:20.288Z,60.20
2023-05-12T17:05:47.469Z,60.50
2023-05-12T17:08:14.294Z,60.20
2023-05-12T17:10:41.415Z,60.40
2023-05-12T17:13:08.743Z,60.50
2023-05-12T17:15:37.985Z,60.80
2023-05-12T17:18:05.623Z,60.80
2023-05-12T17:20:32.669Z,60.90
2023-05-12T17:22:59.605Z,60.90
2023-05-12T17:25:29.786Z,60.70
2023-05-12T17:27:57.073Z,60.70
2023-05-12T17:30:24.098Z,61.00
2023-05-12T17:32:51.302Z,61.00
2023-05-12T17:35:18.380Z,61.30
2023-05-12T17:37:51.718Z,61.60
2023-05-12T17:40:19.112Z,61.50
2023-05-12T17:42:46.133Z,61.30
2023-05-12T17:45:15.921Z,61.30
2023-05-12T17:47:43.764Z,61.50
2023-05-12T17:50:12.107Z,62.40
2023-05-12T17:52:39.478Z,62.40
2023-05-12T17:55:06.987Z,62.80
2023-05-12T17:57:34.502Z,62.90
2023-05-12T18:00:06.051Z,63.30
2023-05-12T18:02:41.364Z,63.50
2023-05-12T18:05:10.088Z,63.70
2023-05-12T18:07:37.088Z,63.80
2023-05-12T18:10:07.734Z,64.10
2023-05-12T18:12:34.878Z,63.90
2023-05-12T18:15:01.927Z,63.90
2023-05-12T18:17:28.961Z,64.10
2023-05-12T18:19:56.263Z,64.20
2023-05-12T18:22:23.081Z,64.00
2023-05-12T18:24:50.919Z,64.00
2023-05-12T18:27:17.949Z,63.90
2023-05-12T18:29:44.805Z,64.00
2023-05-12T18:32:11.674Z,64.00
2023-05-12T18:34:38.721Z,64.00
2023-05-12T18:37:05.937Z,63.70
2023-05-12T18:39:32.909Z,63.50
2023-05-12T18:41:59.881Z,63.40
2023-05-12T18:44:26.727Z,63.60
2023-05-12T18:46:53.802Z,63.80
2023-05-12T18:49:20.935Z,63.70
2023-05-12T18:51:48.053Z,63.70
2023-05-12T18:54:14.998Z,63.40
2023-05-12T18:56:42.134Z,63.50
2023-05-12T18:59:09.553Z,63.40
2023-05-12T19:01:36.504Z,63.50
2023-05-12T19:04:03.737Z,63.30
2023-05-12T19:06:30.957Z,63.20
2023-05-12T19:08:57.939Z,63.10
2023-05-12T19:11:25.111Z,63.30
2023-05-12T19:13:53.488Z,63.60
2023-05-12T19:16:21.579Z,63.80
2023-05-12T19:18:49.158Z,64.00
2023-05-12T19:21:16.425Z,64.20
2023-05-12T19:23:43.802Z,64.60
2023-05-12T19:26:11.213Z,64.60
2023-05-12T19:28:38.095Z,64.80
2023-05-12T19:31:05.015Z,65.10
2023-05-12T19:33:32.942Z,65.60
2023-05-12T19:35:59.903Z,65.90
2023-05-12T19:38:26.856Z,66.10
2023-05-12T19:40:57.261Z,66.30
2023-05-12T19:43:24.157Z,66.60
2023-05-12T19:45:51.331Z,67.00
2023-05-12T19:48:19.665Z,67.10
2023-05-12T19:50:46.938Z,67.30
2023-05-12T19:53:13.890Z,67.80
2023-05-12T19:55:40.814Z,68.10
2023-05-12T19:58:08.917Z,68.40
2023-05-12T20:00:39.333Z,68.90
2023-05-12T20:03:07.010Z,69.50
2023-05-12T20:05:37.786Z,70.10
2023-05-12T20:08:05.415Z,70.50
2023-05-12T20:10:32.407Z,70.90
2023-05-12T20:12:59.295Z,71.10
2023-05-12T20:15:26.135Z,71.00
2023-05-12T20:17:53.057Z,70.50
2023-05-12T20:20:19.936Z,70.40
2023-05-12T20:22:46.849Z,71.60
2023-05-12T20:25:16.282Z,72.50
2023-05-12T20:27:43.836Z,72.10
2023-05-12T20:30:12.675Z,71.90
2023-05-12T20:32:39.760Z,71.50
2023-05-12T20:35:07.194Z,71.50
2023-05-12T20:37:34.076Z,71.50
2023-05-12T20:40:01.151Z,71.80
2023-05-12T20:42:28.084Z,72.10
2023-05-12T20:44:55.261Z,72.20
2023-05-12T20:47:22.222Z,72.30
2023-05-12T20:49:54.297Z,72.70
2023-05-12T20:52:21.449Z,73.00
2023-05-12T20:54:57.610Z,73.20
2023-05-12T20:57:24.850Z,73.30
2023-05-12T20:59:57.123Z,73.70
2023-05-12T21:02:25.196Z,74.20
2023-05-12T21:04:52.592Z,74.50
2023-05-12T21:07:20.182Z,74.50
2023-05-12T21:09:47.899Z,74.60
2023-05-12T21:12:14.804Z,74.60
2023-05-12T21:14:43.270Z,75.00
2023-05-12T21:17:11.386Z,75.40
2023-05-12T21:19:39.824Z,75.60
2023-05-12T21:22:07.659Z,76.00
2023-05-12T21:24:36.570Z,76.40
2023-05-12T21:27:04.659Z,76.60
2023-05-12T21:29:32.346Z,76.70
2023-05-12T21:31:59.637Z,77.20
2023-05-12T21:34:26.813Z,77.10
2023-05-12T21:36:54.685Z,77.10
2023-05-12T21:39:22.117Z,77.70
2023-05-12T21:41:49.232Z,77.90
2023-05-12T21:44:16.323Z,78.10
2023-05-12T21:46:43.485Z,78.40
2023-05-12T21:49:10.659Z,78.90
2023-05-12T21:51:37.564Z,79.90
2023-05-12T21:54:04.508Z,79.50
2023-05-12T21:56:31.395Z,80.20
2023-05-12T21:58:58.210Z,80.50
2023-05-12T22:01:25.189Z,80.90
2023-05-12T22:03:52.089Z,81.40
2023-05-12T22:06:19.018Z,81.50
2023-05-12T22:08:45.925Z,82.30
2023-05-12T22:11:13.005Z,82.80
2023-05-12T22:13:39.986Z,83.10
2023-05-12T22:16:07.238Z,83.00
2023-05-12T22:18:35.089Z,83.40
2023-05-12T22:21:02.030Z,83.90
2023-05-12T22:23:29.049Z,83.50
2023-05-12T22:25:56.078Z,81.60
2023-05-12T22:28:24.388Z,81.40
2023-05-12T22:30:51.479Z,81.20
2023-05-12T22:33:18.823Z,81.60
2023-05-12T22:35:45.729Z,81.80
2023-05-12T22:38:12.713Z,82.00
2023-05-12T22:40:39.628Z,81.70
2023-05-12T22:43:06.933Z,81.70
2023-05-12T22:45:33.879Z,82.10
2023-05-12T22:48:00.781Z,82.00
2023-05-12T22:50:27.641Z,82.50
2023-05-12T22:52:57.310Z,82.60
2023-05-12T22:55:30.686Z,82.50
2023-05-12T22:57:58.275Z,82.70
2023-05-12T23:00:25.222Z,82.70
2023-05-12T23:02:52.292Z,83.10
2023-05-12T23:05:19.630Z,83.60
2023-05-12T23:07:47.797Z,82.50
2023-05-12T23:10:14.997Z,81.80
2023-05-12T23:12:42.361Z,81.80
2023-05-12T23:15:09.889Z,81.70
2023-05-12T23:17:36.891Z,81.10
2023-05-12T23:20:04.429Z,81.00
2023-05-12T23:22:32.836Z,81.10
2023-05-12T23:24:59.689Z,79.40
2023-05-12T23:27:26.798Z,78.10
2023-05-12T23:29:53.683Z,77.90
2023-05-12T23:32:20.724Z,76.50
2023-05-12T23:34:47.983Z,77.70
2023-05-12T23:37:14.844Z,78.00
2023-05-12T23:39:41.707Z,78.60
2023-05-12T23:42:08.786Z,77.80
2023-05-12T23:44:35.801Z,77.40
2023-05-12T23:47:02.674Z,76.90
2023-05-12T23:49:29.703Z,76.60
2023-05-12T23:51:56.616Z,76.80
2023-05-12T23:54:23.523Z,77.10
2023-05-12T23:56:50.632Z,77.00
2023-05-12T23:59:17.523Z,77.00
